Time;durP1;ratioP1;P1;durP2;ratioP2;P2;SDS_P1;SDS_P2;PMS_P1;PMS_P2;Temp;Humidity;BMP_temperature;BMP_pressure;BME280_temperature;BME280_humidity;BME280_pressure;Samples;Min_cycle;Max_cycle;Signal;HPM_P1;HPM_P2
2022/07/13 00:01:18;;;;;;;43.22;22.33;;;19.40;99.90;;;;;;5053322;28;20029;-65
2022/07/13 00:03:43;;;;;;;40.63;22.52;;;19.50;99.90;;;;;;5052975;28;20549;-65
2022/07/13 00:06:09;;;;;;;44.90;24.38;;;19.50;99.90;;;;;;5051346;28;20044;-65
2022/07/13 00:08:35;;;;;;;41.33;22.30;;;19.50;99.90;;;;;;5057764;28;20059;-65
2022/07/13 00:11:00;;;;;;;37.17;21.55;;;19.50;99.90;;;;;;5055115;28;20036;-65
2022/07/13 00:13:26;;;;;;;48.50;22.48;;;19.50;99.90;;;;;;5054163;28;20048;-65
2022/07/13 00:15:52;;;;;;;38.47;22.17;;;19.60;99.90;;;;;;5058430;28;20025;-65
2022/07/13 00:18:17;;;;;;;37.30;20.63;;;19.60;99.90;;;;;;5054354;28;20521;-65
2022/07/13 00:20:45;;;;;;;34.78;20.20;;;19.60;99.90;;;;;;5056189;28;20111;-65
2022/07/13 00:23:11;;;;;;;35.58;19.60;;;19.60;99.90;;;;;;5067128;28;20040;-65
2022/07/13 00:25:36;;;;;;;34.40;19.40;;;19.60;99.90;;;;;;5053043;28;20087;-65
2022/07/13 00:28:02;;;;;;;35.33;19.58;;;19.60;99.90;;;;;;5052212;28;20040;-65
2022/07/13 00:30:27;;;;;;;39.85;20.05;;;19.60;99.90;;;;;;5059179;28;20029;-65
2022/07/13 00:32:53;;;;;;;34.67;19.25;;;19.60;99.90;;;;;;5049932;28;20102;-65
2022/07/13 00:35:18;;;;;;;36.40;19.55;;;19.60;99.90;;;;;;5054820;28;20123;-65
2022/07/13 00:37:44;;;;;;;31.30;17.77;;;19.60;99.90;;;;;;5056885;28;20037;-65
2022/07/13 00:40:10;;;;;;;35.50;19.10;;;19.60;99.90;;;;;;5058904;28;20056;-65
2022/07/13 00:42:36;;;;;;;37.72;19.30;;;19.60;99.90;;;;;;5032349;28;20388;-65
2022/07/13 00:45:02;;;;;;;36.45;19.75;;;19.60;99.90;;;;;;5056564;28;20032;-65
2022/07/13 00:47:34;;;;;;;38.60;18.55;;;19.60;99.90;;;;;;5053070;28;20558;-65
2022/07/13 00:50:08;;;;;;;40.80;18.05;;;19.60;99.90;;;;;;5048963;28;20052;-65
2022/07/13 00:52:35;;;;;;;37.95;18.10;;;19.60;99.90;;;;;;5050316;28;20146;-65
2022/07/13 00:55:03;;;;;;;35.45;18.55;;;19.60;99.90;;;;;;5056225;28;20154;-65
2022/07/13 00:57:28;;;;;;;33.08;17.25;;;19.60;99.90;;;;;;5052077;28;20040;-65
2022/07/13 00:59:55;;;;;;;36.65;18.77;;;19.60;99.90;;;;;;5057130;28;20073;-65
2022/07/13 01:02:20;;;;;;;28.17;16.98;;;19.60;99.90;;;;;;5057302;28;20114;-65
2022/07/13 01:04:46;;;;;;;32.25;18.08;;;19.60;99.90;;;;;;5056015;28;20033;-65
2022/07/13 01:07:12;;;;;;;38.00;19.88;;;19.60;99.90;;;;;;5051510;28;20044;-64
2022/07/13 01:09:38;;;;;;;38.67;19.77;;;19.60;99.90;;;;;;5051849;28;20036;-65
2022/07/13 01:12:05;;;;;;;36.95;19.35;;;19.60;99.90;;;;;;5052200;28;20543;-65
2022/07/13 01:14:31;;;;;;;35.13;19.40;;;19.60;99.90;;;;;;5055821;28;20045;-65
2022/07/13 01:16:58;;;;;;;37.47;18.50;;;19.60;99.90;;;;;;5056668;28;20468;-65
2022/07/13 01:19:24;;;;;;;39.95;19.10;;;19.60;99.90;;;;;;5052650;28;20049;-65
2022/07/13 01:21:58;;;;;;;39.35;18.73;;;19.60;99.90;;;;;;5041579;28;20029;-65
2022/07/13 01:24:23;;;;;;;39.58;19.33;;;19.60;99.90;;;;;;5055151;28;20055;-64
2022/07/13 01:26:49;;;;;;;36.75;20.13;;;19.60;99.90;;;;;;5056781;28;20498;-65
2022/07/13 01:29:15;;;;;;;38.30;20.05;;;19.50;99.90;;;;;;5060089;28;20041;-65
2022/07/13 01:31:41;;;;;;;38.42;20.05;;;19.60;99.90;;;;;;5059537;28;20051;-65
2022/07/13 01:34:08;;;;;;;33.85;19.10;;;19.50;99.90;;;;;;5057676;28;20080;-65
2022/07/13 01:36:38;;;;;;;37.00;18.20;;;19.50;99.90;;;;;;5057716;28;20043;-65
2022/07/13 01:39:05;;;;;;;34.58;18.60;;;19.60;99.90;;;;;;5054994;28;20605;-65
2022/07/13 01:41:30;;;;;;;33.65;18.95;;;19.60;99.90;;;;;;5061676;28;20044;-65
2022/07/13 01:43:57;;;;;;;39.03;19.13;;;19.60;99.90;;;;;;5059811;28;20045;-65
2022/07/13 01:46:26;;;;;;;37.88;19.38;;;19.60;99.90;;;;;;5073625;28;20048;-64
2022/07/13 01:48:54;;;;;;;37.28;18.85;;;19.60;99.90;;;;;;5057043;28;20047;-65
2022/07/13 01:51:19;;;;;;;35.95;19.15;;;19.60;99.90;;;;;;5038970;28;20041;-65
2022/07/13 01:53:45;;;;;;;33.42;17.58;;;19.60;99.90;;;;;;5059494;28;20059;-65
2022/07/13 01:56:12;;;;;;;39.63;19.60;;;19.60;99.90;;;;;;5058647;28;20037;-64
2022/07/13 01:58:37;;;;;;;33.33;18.23;;;19.60;99.90;;;;;;5061206;28;20395;-65
2022/07/13 02:01:03;;;;;;;39.70;18.77;;;19.50;99.90;;;;;;5056778;28;20045;-65
2022/07/13 02:03:32;;;;;;;37.28;19.33;;;19.50;99.90;;;;;;5059054;28;20042;-65
2022/07/13 02:05:58;;;;;;;35.90;18.48;;;19.60;99.90;;;;;;5071164;28;20151;-65
2022/07/13 02:08:28;;;;;;;33.72;18.73;;;19.60;99.90;;;;;;5054651;28;20064;-65
2022/07/13 02:10:53;;;;;;;35.65;18.50;;;19.60;99.90;;;;;;5055408;28;20040;-65
2022/07/13 02:13:21;;;;;;;33.42;17.30;;;19.60;99.90;;;;;;5060194;28;20035;-65
2022/07/13 02:15:47;;;;;;;35.60;17.02;;;19.60;99.90;;;;;;5063383;28;20037;-65
2022/07/13 02:18:12;;;;;;;32.88;17.45;;;19.60;99.90;;;;;;5052196;28;20029;-65
2022/07/13 02:20:38;;;;;;;35.08;17.15;;;19.60;99.90;;;;;;5056422;28;20067;-64
2022/07/13 02:23:05;;;;;;;33.35;17.45;;;19.60;99.90;;;;;;5055952;28;20036;-65
2022/07/13 02:25:33;;;;;;;37.90;17.65;;;19.60;99.90;;;;;;5071721;28;20047;-65
2022/07/13 02:27:58;;;;;;;31.50;16.98;;;19.60;99.90;;;;;;5056064;28;20111;-65
2022/07/13 02:30:24;;;;;;;33.65;16.85;;;19.60;99.90;;;;;;5059356;28;20170;-65
2022/07/13 02:32:49;;;;;;;34.15;17.33;;;19.60;99.90;;;;;;5058445;28;20037;-65
2022/07/13 02:35:15;;;;;;;31.02;16.63;;;19.60;99.90;;;;;;5052285;28;20076;-64
2022/07/13 02:37:41;;;;;;;29.85;17.27;;;19.60;99.90;;;;;;5055747;28;20036;-64
2022/07/13 02:40:08;;;;;;;32.95;16.80;;;19.60;99.90;;;;;;5057488;28;20051;-65
2022/07/13 02:42:34;;;;;;;30.67;16.50;;;19.60;99.90;;;;;;5053785;28;20090;-65
2022/07/13 02:45:00;;;;;;;32.60;17.23;;;19.60;99.90;;;;;;5052824;28;20727;-65
2022/07/13 02:47:25;;;;;;;33.45;16.88;;;19.60;99.90;;;;;;5056243;28;20044;-65
2022/07/13 02:49:51;;;;;;;33.45;17.17;;;19.60;99.90;;;;;;5054836;28;20036;-65
2022/07/13 02:52:17;;;;;;;30.92;16.23;;;19.60;99.90;;;;;;5054188;28;20086;-65
2022/07/13 02:54:43;;;;;;;31.67;16.17;;;19.70;99.90;;;;;;5052108;28;20037;-65
2022/07/13 02:57:09;;;;;;;29.25;15.82;;;19.60;99.90;;;;;;5068092;28;20056;-65
2022/07/13 02:59:38;;;;;;;28.80;16.33;;;19.60;99.90;;;;;;5055310;28;20037;-65
2022/07/13 03:02:05;;;;;;;31.45;16.35;;;19.60;99.90;;;;;;5056306;28;20041;-65
2022/07/13 03:04:31;;;;;;;29.10;15.63;;;19.60;99.90;;;;;;5053386;28;20441;-65
2022/07/13 03:06:57;;;;;;;29.98;15.00;;;19.60;99.90;;;;;;5055466;28;20048;-65
2022/07/13 03:09:23;;;;;;;32.78;15.05;;;19.60;99.90;;;;;;5058531;28;20028;-65
2022/07/13 03:11:49;;;;;;;27.48;14.18;;;19.60;99.90;;;;;;5071461;28;20089;-65
2022/07/13 03:14:14;;;;;;;24.63;13.75;;;19.60;99.90;;;;;;5055613;28;20541;-65
2022/07/13 03:16:40;;;;;;;28.42;13.93;;;19.60;99.90;;;;;;5058201;28;20037;-65
2022/07/13 03:19:07;;;;;;;27.90;14.13;;;19.60;99.90;;;;;;5053338;28;20041;-65
2022/07/13 03:21:32;;;;;;;29.38;14.63;;;19.60;99.90;;;;;;5053634;28;20119;-65
2022/07/13 03:23:59;;;;;;;27.85;15.55;;;19.60;99.90;;;;;;5051675;28;20440;-65
2022/07/13 03:26:24;;;;;;;28.30;15.32;;;19.60;99.90;;;;;;5053521;28;20048;-65
2022/07/13 03:28:50;;;;;;;28.60;14.70;;;19.50;99.90;;;;;;5054469;28;20742;-65
2022/07/13 03:31:16;;;;;;;30.90;15.20;;;19.50;99.90;;;;;;5053471;28;20047;-65
2022/07/13 03:33:42;;;;;;;28.70;14.95;;;19.50;99.90;;;;;;5053334;28;20036;-65
2022/07/13 03:36:08;;;;;;;29.70;14.85;;;19.50;99.90;;;;;;5039949;28;20157;-65
2022/07/13 03:38:34;;;;;;;29.23;14.82;;;19.50;99.90;;;;;;5052830;28;20395;-65
2022/07/13 03:41:00;;;;;;;29.67;16.08;;;19.50;99.90;;;;;;5052831;28;20086;-65
2022/07/13 03:43:26;;;;;;;28.40;15.18;;;19.50;99.90;;;;;;5055103;28;20037;-65
2022/07/13 03:45:51;;;;;;;26.40;14.98;;;19.50;99.90;;;;;;5053689;28;20040;-65
2022/07/13 03:48:18;;;;;;;26.25;13.57;;;19.50;99.90;;;;;;5055555;28;20059;-65
2022/07/13 03:50:44;;;;;;;29.38;14.35;;;19.50;99.90;;;;;;5051633;28;20068;-65
2022/07/13 03:53:09;;;;;;;25.27;14.50;;;19.50;99.90;;;;;;5051206;28;20041;-65
2022/07/13 03:55:36;;;;;;;25.25;14.40;;;19.50;99.90;;;;;;5054984;28;20379;-65
2022/07/13 03:58:02;;;;;;;23.15;13.50;;;19.50;99.90;;;;;;5051474;28;20437;-65
2022/07/13 04:00:27;;;;;;;24.15;13.80;;;19.50;99.90;;;;;;5052541;28;20040;-65
2022/07/13 04:02:53;;;;;;;29.67;14.00;;;19.50;99.90;;;;;;5037503;28;20040;-65
2022/07/13 04:05:18;;;;;;;26.88;14.07;;;19.50;99.90;;;;;;5049822;28;20059;-65
2022/07/13 04:07:44;;;;;;;25.70;12.88;;;19.40;99.90;;;;;;5051368;28;20500;-65
2022/07/13 04:10:10;;;;;;;25.40;12.95;;;19.50;99.90;;;;;;5052843;28;20032;-65
2022/07/13 04:12:35;;;;;;;24.70;13.18;;;19.40;99.90;;;;;;5052669;28;20049;-65
2022/07/13 04:15:01;;;;;;;26.20;13.07;;;19.40;99.90;;;;;;5054366;28;20067;-65
2022/07/13 04:17:26;;;;;;;23.05;13.20;;;19.40;99.90;;;;;;5049932;28;20098;-65
2022/07/13 04:19:52;;;;;;;24.92;12.50;;;19.50;99.90;;;;;;5055511;28;20033;-65
2022/07/13 04:22:17;;;;;;;30.80;13.60;;;19.40;99.90;;;;;;5051979;28;20067;-65
2022/07/13 04:24:43;;;;;;;22.63;13.20;;;19.50;99.90;;;;;;5050950;28;20558;-65
2022/07/13 04:27:08;;;;;;;23.00;12.77;;;19.50;99.90;;;;;;5051417;28;20044;-65
2022/07/13 04:29:34;;;;;;;25.95;13.02;;;19.50;99.90;;;;;;5051190;28;20414;-65
2022/07/13 04:32:00;;;;;;;25.15;12.30;;;19.50;99.90;;;;;;5057188;28;20092;-65
2022/07/13 04:34:25;;;;;;;22.25;12.68;;;19.50;99.90;;;;;;5054785;28;20033;-65
2022/07/13 04:36:52;;;;;;;23.70;12.95;;;19.60;99.90;;;;;;5053467;28;20090;-65
2022/07/13 04:39:18;;;;;;;25.17;13.20;;;19.60;99.90;;;;;;5057413;28;20079;-65
2022/07/13 04:41:43;;;;;;;24.45;12.25;;;19.60;99.90;;;;;;5056695;28;20068;-65
2022/07/13 04:44:09;;;;;;;22.15;11.85;;;19.60;99.90;;;;;;5049919;28;20139;-65
2022/07/13 04:46:35;;;;;;;23.58;12.95;;;19.70;99.90;;;;;;5057653;28;20042;-65
2022/07/13 04:49:00;;;;;;;21.55;12.75;;;19.70;99.90;;;;;;5051028;28;20044;-65
2022/07/13 04:51:26;;;;;;;22.33;12.45;;;19.70;99.90;;;;;;5054899;28;20041;-65
2022/07/13 04:53:51;;;;;;;23.77;12.80;;;19.80;99.90;;;;;;5061639;28;20120;-65
2022/07/13 04:56:17;;;;;;;25.08;12.75;;;19.80;99.90;;;;;;5058694;28;20041;-65
2022/07/13 04:58:43;;;;;;;27.05;13.75;;;19.80;99.90;;;;;;5044056;28;20075;-65
2022/07/13 05:01:08;;;;;;;25.63;13.77;;;19.90;99.90;;;;;;5064504;28;20383;-65
2022/07/13 05:03:36;;;;;;;27.80;13.32;;;20.00;99.90;;;;;;5059632;28;20075;-65
2022/07/13 05:06:01;;;;;;;24.60;13.18;;;20.00;99.90;;;;;;5056075;28;20052;-65
2022/07/13 05:08:27;;;;;;;23.83;13.18;;;20.20;99.90;;;;;;5071481;28;20487;-65
2022/07/13 05:10:53;;;;;;;23.33;12.18;;;20.30;99.90;;;;;;5072305;28;20037;-65
2022/07/13 05:13:19;;;;;;;22.75;12.70;;;20.30;99.90;;;;;;5063057;28;20657;-64
2022/07/13 05:15:45;;;;;;;24.15;13.70;;;20.40;99.90;;;;;;5062588;28;20040;-65
2022/07/13 05:18:11;;;;;;;22.42;11.77;;;20.40;99.90;;;;;;5067425;28;20079;-65
2022/07/13 05:20:37;;;;;;;28.45;13.02;;;20.40;99.90;;;;;;5063794;28;20037;-65
2022/07/13 05:23:03;;;;;;;24.17;12.60;;;20.50;99.90;;;;;;5066821;28;20045;-65
2022/07/13 05:25:29;;;;;;;25.13;13.25;;;20.50;99.90;;;;;;5066819;28;20082;-65
2022/07/13 05:27:55;;;;;;;25.65;13.38;;;20.50;99.90;;;;;;5066480;28;20127;-65
2022/07/13 05:30:21;;;;;;;24.45;12.77;;;20.50;99.90;;;;;;5064654;28;20041;-65
2022/07/13 05:32:47;;;;;;;24.27;12.30;;;20.50;99.90;;;;;;5068922;28;20078;-65
2022/07/13 05:35:13;;;;;;;21.80;11.90;;;20.50;99.90;;;;;;5068119;28;20083;-65
2022/07/13 05:37:38;;;;;;;22.45;12.63;;;20.60;99.90;;;;;;5067454;28;20048;-65
2022/07/13 05:40:05;;;;;;;24.20;12.43;;;20.60;99.90;;;;;;5066698;28;20044;-65
2022/07/13 05:42:30;;;;;;;18.00;11.57;;;20.70;99.90;;;;;;5065570;28;20029;-65
2022/07/13 05:44:56;;;;;;;22.60;11.70;;;20.80;99.90;;;;;;5061149;28;20040;-65
2022/07/13 05:47:22;;;;;;;19.08;10.90;;;20.80;99.90;;;;;;5068639;28;20044;-66
2022/07/13 05:49:47;;;;;;;20.52;11.30;;;20.90;99.90;;;;;;5067332;28;20119;-65
2022/07/13 05:52:13;;;;;;;17.30;10.73;;;20.90;99.90;;;;;;5069898;28;20146;-65
2022/07/13 05:54:38;;;;;;;19.80;11.25;;;21.00;99.90;;;;;;5070168;28;20381;-65
2022/07/13 05:57:04;;;;;;;21.42;11.13;;;21.00;99.90;;;;;;5059571;28;20048;-65
2022/07/13 05:59:32;;;;;;;24.17;11.20;;;21.10;99.90;;;;;;5070341;28;20068;-65
2022/07/13 06:01:59;;;;;;;19.50;10.95;;;21.10;99.90;;;;;;5071031;28;20033;-65
2022/07/13 06:04:24;;;;;;;18.48;11.05;;;21.10;99.90;;;;;;5066466;28;20051;-65
2022/07/13 06:06:50;;;;;;;22.20;12.02;;;21.20;99.90;;;;;;5069447;28;20127;-65
2022/07/13 06:09:15;;;;;;;24.38;11.90;;;21.30;99.90;;;;;;5059391;28;20037;-65
2022/07/13 06:11:41;;;;;;;21.60;12.05;;;21.40;99.90;;;;;;5058783;28;20045;-65
2022/07/13 06:14:07;;;;;;;24.48;12.50;;;21.50;99.90;;;;;;5062320;28;20786;-65
2022/07/13 06:16:33;;;;;;;22.60;12.43;;;21.50;99.90;;;;;;5066213;28;20037;-65
2022/07/13 06:18:59;;;;;;;24.88;12.52;;;21.60;99.90;;;;;;5064389;28;20025;-65
2022/07/13 06:21:24;;;;;;;23.25;12.93;;;21.70;99.90;;;;;;5058523;28;20025;-66
2022/07/13 06:23:50;;;;;;;27.50;13.88;;;21.70;99.90;;;;;;5068857;28;20043;-66
2022/07/13 06:26:15;;;;;;;33.83;13.65;;;21.90;99.90;;;;;;5059324;28;20044;-65
2022/07/13 06:28:41;;;;;;;29.85;14.52;;;22.00;99.90;;;;;;5065349;28;20068;-66
2022/07/13 06:31:07;;;;;;;27.85;14.73;;;22.00;99.90;;;;;;5070285;28;20037;-66
2022/07/13 06:33:33;;;;;;;32.10;15.98;;;22.10;99.90;;;;;;5070413;28;20033;-65
2022/07/13 06:35:58;;;;;;;33.33;17.02;;;22.10;99.90;;;;;;5070420;28;20503;-66
2022/07/13 06:38:24;;;;;;;36.22;16.13;;;22.20;99.90;;;;;;5071073;28;20446;-66
2022/07/13 06:40:50;;;;;;;33.90;18.27;;;22.30;99.90;;;;;;5062536;28;20391;-67
2022/07/13 06:43:15;;;;;;;36.58;16.15;;;22.40;99.90;;;;;;5057101;28;20040;-65
2022/07/13 06:45:41;;;;;;;35.97;18.00;;;22.50;99.90;;;;;;5040320;28;20055;-66
2022/07/13 06:48:07;;;;;;;38.85;18.58;;;22.70;99.90;;;;;;5068031;28;20055;-65
2022/07/13 06:50:32;;;;;;;41.00;18.73;;;22.80;99.90;;;;;;5070860;28;20043;-66
2022/07/13 06:52:58;;;;;;;38.00;20.45;;;22.90;99.90;;;;;;5070554;28;20121;-67
2022/07/13 06:55:23;;;;;;;41.03;19.75;;;22.90;99.90;;;;;;5060932;28;20639;-66
2022/07/13 06:57:49;;;;;;;46.85;20.58;;;22.90;99.90;;;;;;5063089;28;20045;-65
2022/07/13 07:00:15;;;;;;;42.80;20.52;;;22.90;99.90;;;;;;5050383;28;20048;-65
2022/07/13 07:02:40;;;;;;;41.15;20.80;;;22.90;99.90;;;;;;5063075;28;20526;-66
2022/07/13 07:05:09;;;;;;;45.80;21.13;;;22.90;99.90;;;;;;5055100;28;20098;-66
2022/07/13 07:07:41;;;;;;;46.75;22.90;;;22.90;99.90;;;;;;5054338;28;20400;-65
2022/07/13 07:10:09;;;;;;;47.97;22.58;;;22.90;99.90;;;;;;5070422;28;20041;-66
2022/07/13 07:12:35;;;;;;;42.60;21.42;;;22.80;99.90;;;;;;5053121;28;20037;-65
2022/07/13 07:15:01;;;;;;;48.80;23.20;;;23.00;99.90;;;;;;5066748;28;20049;-65
2022/07/13 07:17:27;;;;;;;45.50;21.83;;;22.90;99.90;;;;;;5069381;28;20037;-65
2022/07/13 07:20:03;;;;;;;48.53;23.85;;;23.00;99.90;;;;;;5075552;28;20039;-66
2022/07/13 07:22:29;;;;;;;52.63;23.25;;;23.10;99.90;;;;;;5090875;28;20552;-65
2022/07/13 07:24:54;;;;;;;45.78;23.63;;;23.30;99.90;;;;;;5080022;28;20036;-66
2022/07/13 07:27:20;;;;;;;49.53;23.38;;;23.40;99.90;;;;;;5060672;28;20042;-65
2022/07/13 07:29:46;;;;;;;49.28;24.58;;;23.50;99.90;;;;;;5063493;28;20093;-65
2022/07/13 07:32:12;;;;;;;52.40;24.88;;;23.50;99.90;;;;;;5068902;28;20514;-65
2022/07/13 07:34:37;;;;;;;48.50;24.45;;;23.50;99.90;;;;;;5069900;28;20110;-65
2022/07/13 07:37:03;;;;;;;48.20;24.48;;;23.50;99.90;;;;;;5070831;28;20056;-64
2022/07/13 07:39:29;;;;;;;49.78;25.15;;;23.50;99.90;;;;;;5069350;28;20158;-66
2022/07/13 07:41:55;;;;;;;48.25;22.85;;;23.50;99.90;;;;;;5069993;28;20029;-65
2022/07/13 07:44:21;;;;;;;50.85;24.33;;;23.70;99.90;;;;;;5053752;28;20040;-65
2022/07/13 07:46:47;;;;;;;54.75;25.23;;;23.80;99.90;;;;;;5070458;28;20051;-66
2022/07/13 07:49:13;;;;;;;47.45;22.33;;;23.80;99.90;;;;;;5069835;28;20059;-66
2022/07/13 07:51:39;;;;;;;44.28;22.98;;;23.70;99.90;;;;;;5069351;28;20036;-66
2022/07/13 07:54:05;;;;;;;50.03;23.80;;;23.70;99.90;;;;;;5070625;28;20041;-66
2022/07/13 07:56:31;;;;;;;49.65;23.45;;;23.80;99.90;;;;;;5066359;28;20044;-66
2022/07/13 07:58:57;;;;;;;48.80;21.35;;;23.80;99.90;;;;;;5050916;28;20055;-66
2022/07/13 08:01:23;;;;;;;43.97;22.20;;;24.00;99.90;;;;;;5051864;28;20032;-66
2022/07/13 08:03:49;;;;;;;41.75;21.17;;;24.00;99.90;;;;;;5069467;28;20044;-67
2022/07/13 08:06:16;;;;;;;41.75;19.35;;;24.00;99.90;;;;;;5069043;28;20166;-65
2022/07/13 08:08:42;;;;;;;38.72;19.63;;;24.00;99.90;;;;;;5051962;28;20056;-66
2022/07/13 08:11:09;;;;;;;37.97;18.45;;;24.10;99.90;;;;;;5049266;28;20045;-67
2022/07/13 08:13:35;;;;;;;36.95;19.63;;;24.20;99.90;;;;;;5054881;28;20421;-66
2022/07/13 08:16:02;;;;;;;35.63;19.27;;;24.20;99.90;;;;;;5068721;28;20522;-68
2022/07/13 08:18:28;;;;;;;34.60;18.10;;;24.30;99.90;;;;;;5068549;28;20145;-65
2022/07/13 08:20:54;;;;;;;33.95;18.25;;;24.30;99.90;;;;;;5069862;28;20068;-66
2022/07/13 08:26:04;;;;;;;31.63;18.25;;;24.20;99.90;;;;;;5068939;28;20105;-67
2022/07/13 08:28:29;;;;;;;35.50;17.65;;;24.10;99.90;;;;;;5069737;28;20546;-65
2022/07/13 08:30:55;;;;;;;35.03;18.05;;;24.10;99.90;;;;;;5067920;28;20036;-66
2022/07/13 08:38:34;;;;;;;37.65;19.67;;;24.20;99.90;;;;;;5068078;28;20048;-66
2022/07/13 08:39:04;;;;;;;37.08;18.38;;;24.40;99.90;;;;;;5061564;28;20098;-66
2022/07/13 08:41:32;;;;;;;39.30;21.73;;;24.60;99.90;;;;;;5057651;28;20044;-66
2022/07/13 08:43:58;;;;;;;37.40;18.63;;;24.60;99.90;;;;;;5084653;28;20045;-69
2022/07/13 08:46:25;;;;;;;36.63;18.73;;;24.60;99.90;;;;;;5065664;28;20076;-67
2022/07/13 08:48:54;;;;;;;32.28;17.25;;;24.70;99.90;;;;;;5049052;28;20052;-67
2022/07/13 08:51:20;;;;;;;32.42;17.60;;;24.70;99.90;;;;;;5048593;28;20047;-66
2022/07/13 08:53:47;;;;;;;39.75;19.75;;;24.70;99.90;;;;;;5049871;28;20049;-66
2022/07/13 08:56:14;;;;;;;38.67;18.40;;;24.70;99.90;;;;;;5065696;28;20082;-66
2022/07/13 08:58:40;;;;;;;36.33;19.02;;;24.80;99.90;;;;;;5066057;28;20133;-66
2022/07/13 09:01:08;;;;;;;37.95;19.95;;;24.80;99.90;;;;;;5069266;28;20091;-66
2022/07/13 09:03:35;;;;;;;44.13;21.30;;;24.70;99.90;;;;;;5069606;28;20927;-67
2022/07/13 09:06:00;;;;;;;36.67;18.98;;;24.90;99.90;;;;;;5069422;28;20051;-66
2022/07/13 09:08:26;;;;;;;34.63;17.85;;;24.90;99.90;;;;;;5069316;28;20041;-67
2022/07/13 09:10:59;;;;;;;34.63;19.10;;;25.00;99.90;;;;;;5064865;28;20028;-66
2022/07/13 09:13:44;;;;;;;41.58;20.63;;;25.20;99.90;;;;;;5063576;28;20041;-66
2022/07/13 09:16:14;;;;;;;43.85;20.98;;;25.20;99.90;;;;;;5070184;28;20491;-66
2022/07/13 09:18:40;;;;;;;39.55;20.50;;;25.30;99.90;;;;;;5069581;28;20036;-67
2022/07/13 09:21:07;;;;;;;43.92;22.60;;;25.40;99.90;;;;;;5063102;28;20052;-66
2022/07/13 09:23:32;;;;;;;41.45;22.45;;;25.40;99.90;;;;;;5069740;28;20044;-67
2022/07/13 09:25:58;;;;;;;45.65;21.65;;;25.40;99.90;;;;;;5069770;28;20515;-66
2022/07/13 09:28:24;;;;;;;39.45;21.58;;;25.30;99.90;;;;;;5068799;28;20039;-65
2022/07/13 09:30:50;;;;;;;38.80;21.58;;;25.40;99.90;;;;;;5067529;28;20479;-66
2022/07/13 09:33:34;;;;;;;42.58;21.42;;;25.40;99.90;;;;;;5067924;28;20102;-66
2022/07/13 09:36:12;;;;;;;47.05;22.98;;;25.40;99.90;;;;;;5044494;28;20037;-67
2022/07/13 09:38:39;;;;;;;41.63;20.20;;;25.40;99.90;;;;;;5059972;28;20041;-67
2022/07/13 09:41:18;;;;;;;38.83;20.63;;;25.50;99.90;;;;;;5058634;28;20132;-67
2022/07/13 09:47:05;;;;;;;42.50;22.77;;;25.70;99.90;;;;;;5075402;28;20063;-66
2022/07/13 09:49:34;;;;;;;41.30;23.25;;;25.70;99.90;;;;;;5076978;28;20044;-65
2022/07/13 09:52:02;;;;;;;51.17;23.45;;;25.70;99.90;;;;;;5070618;28;20047;-66
2022/07/13 09:54:29;;;;;;;40.03;22.35;;;25.50;99.90;;;;;;5060791;28;20511;-66
2022/07/13 09:56:59;;;;;;;39.03;22.50;;;25.50;99.90;;;;;;5062272;28;20048;-67
2022/07/13 09:59:26;;;;;;;51.85;22.80;;;25.50;99.90;;;;;;5072343;28;20429;-66
2022/07/13 10:01:52;;;;;;;36.33;21.88;;;25.50;99.90;;;;;;5071406;28;20406;-66
2022/07/13 10:04:18;;;;;;;44.25;20.33;;;25.50;99.90;;;;;;5071690;28;20044;-68
2022/07/13 10:06:45;;;;;;;39.40;21.42;;;25.60;99.90;;;;;;5071908;28;20089;-65
2022/07/13 10:09:10;;;;;;;38.17;20.90;;;25.60;99.90;;;;;;5069218;28;20094;-65
2022/07/13 10:11:36;;;;;;;32.08;18.52;;;25.70;99.90;;;;;;5064435;28;20033;-67
2022/07/13 10:14:04;;;;;;;37.15;19.48;;;25.80;99.90;;;;;;5069522;28;20356;-67
2022/07/13 10:16:31;;;;;;;32.72;18.35;;;25.70;99.90;;;;;;5071146;28;20462;-66
2022/07/13 10:19:03;;;;;;;37.15;18.02;;;25.70;99.90;;;;;;5071576;28;20044;-66
2022/07/13 10:22:09;;;;;;;30.63;17.20;;;25.80;99.90;;;;;;5071737;28;20433;-66
2022/07/13 10:24:36;;;;;;;29.30;16.20;;;25.90;99.90;;;;;;5069196;28;20133;-66
2022/07/13 10:27:26;;;;;;;32.80;16.27;;;25.90;99.90;;;;;;5050391;28;20495;-68
2022/07/13 10:29:54;;;;;;;30.48;16.27;;;26.00;99.90;;;;;;5051055;28;20053;-67
2022/07/13 10:32:40;;;;;;;33.58;18.48;;;26.00;99.90;;;;;;5062986;28;20049;-66
2022/07/13 10:35:12;;;;;;;29.65;15.35;;;26.00;99.90;;;;;;5070836;28;20386;-66
2022/07/13 10:37:56;;;;;;;31.33;17.30;;;26.00;99.90;;;;;;5070825;28;20422;-65
2022/07/13 10:40:28;;;;;;;22.55;13.63;;;26.10;99.90;;;;;;5070932;28;20075;-65
2022/07/13 10:42:54;;;;;;;20.58;10.60;;;26.10;99.90;;;;;;5056694;28;20510;-66
2022/07/13 10:45:52;;;;;;;23.52;11.73;;;26.20;99.90;;;;;;5067723;28;20052;-66
2022/07/13 10:48:24;;;;;;;20.38;11.07;;;26.40;99.90;;;;;;5065972;28;20041;-67
2022/07/13 10:50:56;;;;;;;18.45;10.60;;;26.40;99.90;;;;;;5068180;28;20103;-67
2022/07/13 10:53:46;;;;;;;17.40;9.88;;;26.50;99.90;;;;;;5065764;28;20368;-65
2022/07/13 10:56:19;;;;;;;19.23;10.77;;;26.50;99.90;;;;;;5068735;28;20063;-68
2022/07/13 10:58:49;;;;;;;17.88;8.52;;;26.50;99.90;;;;;;5074466;28;20040;-66
2022/07/13 11:01:42;;;;;;;13.02;7.93;;;26.60;99.90;;;;;;5068522;28;20043;-66
2022/07/13 11:04:09;;;;;;;14.10;7.53;;;26.60;99.90;;;;;;5071104;28;20040;-67
2022/07/13 11:06:36;;;;;;;14.35;8.00;;;26.70;99.90;;;;;;5070234;28;20093;-66
2022/07/13 11:09:18;;;;;;;16.40;8.15;;;26.70;99.90;;;;;;5070615;28;20048;-65
2022/07/13 11:11:46;;;;;;;14.52;7.85;;;26.70;99.90;;;;;;5070675;28;20076;-66
2022/07/13 11:14:36;;;;;;;11.55;8.45;;;26.80;99.90;;;;;;5061577;28;20045;-66
2022/07/13 11:17:15;;;;;;;14.82;7.90;;;26.90;99.90;;;;;;5055268;28;20133;-67
2022/07/13 11:19:54;;;;;;;17.45;8.18;;;26.90;99.90;;;;;;5070232;28;20024;-66
2022/07/13 11:22:21;;;;;;;14.27;7.43;;;27.10;99.90;;;;;;5070091;28;20051;-67
2022/07/13 11:25:16;;;;;;;12.88;7.50;;;27.10;99.90;;;;;;5070034;28;20127;-66
2022/07/13 11:27:53;;;;;;;13.75;7.30;;;27.00;99.90;;;;;;5069919;28;20060;-69
2022/07/13 11:30:29;;;;;;;14.50;7.88;;;27.00;99.90;;;;;;5056739;28;20400;-66
2022/07/13 11:32:55;;;;;;;16.80;7.43;;;26.90;99.90;;;;;;5061333;28;20070;-65
2022/07/13 11:35:21;;;;;;;16.63;7.43;;;27.10;99.90;;;;;;5064956;28;20036;-67
2022/07/13 11:37:47;;;;;;;14.10;7.53;;;27.30;99.90;;;;;;5063039;28;20037;-67
2022/07/13 11:40:26;;;;;;;13.70;7.38;;;27.40;99.90;;;;;;5050424;28;20025;-67
2022/07/13 11:42:53;;;;;;;12.13;7.25;;;27.40;99.90;;;;;;5050033;28;20037;-69
2022/07/13 11:45:32;;;;;;;13.68;8.32;;;27.30;99.90;;;;;;5050232;28;20089;-68
2022/07/13 11:48:00;;;;;;;11.32;7.05;;;27.00;99.90;;;;;;5048841;28;20041;-66
2022/07/13 11:50:47;;;;;;;17.50;7.10;;;27.00;99.90;;;;;;5049766;28;20041;-66
2022/07/13 11:53:27;;;;;;;17.35;7.30;;;27.10;99.90;;;;;;5068244;28;20446;-67
2022/07/13 11:55:56;;;;;;;16.23;7.88;;;27.20;99.90;;;;;;5066010;28;20037;-67
2022/07/13 11:58:28;;;;;;;15.90;7.72;;;27.30;99.90;;;;;;5068038;28;20032;-69
2022/07/13 12:00:55;;;;;;;15.95;8.05;;;27.20;99.30;;;;;;5065123;28;20177;-68
2022/07/13 12:03:32;;;;;;;11.57;7.40;;;27.10;99.90;;;;;;5065443;28;20036;-68
2022/07/13 12:06:07;;;;;;;16.77;8.25;;;27.20;99.90;;;;;;5070059;28;20086;-68
2022/07/13 12:08:38;;;;;;;15.13;8.55;;;27.10;99.90;;;;;;5068696;28;20043;-67
2022/07/13 12:11:09;;;;;;;16.73;8.00;;;26.90;99.90;;;;;;5068927;28;20433;-66
2022/07/13 12:13:37;;;;;;;11.85;8.57;;;26.60;99.90;;;;;;5070126;28;20043;-67
2022/07/13 12:16:05;;;;;;;16.30;7.35;;;26.50;99.90;;;;;;5067377;28;20060;-67
2022/07/13 12:19:04;;;;;;;18.23;8.10;;;26.70;99.90;;;;;;5061041;28;20449;-68
2022/07/13 12:21:31;;;;;;;15.07;9.52;;;26.90;99.90;;;;;;5065363;28;20043;-68
2022/07/13 12:23:58;;;;;;;16.65;9.60;;;27.00;99.90;;;;;;5069538;28;20079;-67
2022/07/13 12:26:25;;;;;;;20.08;10.93;;;27.00;99.90;;;;;;5083259;28;20055;-67
2022/07/13 12:28:50;;;;;;;24.33;10.18;;;27.00;99.90;;;;;;5069969;28;20045;-65
2022/07/13 12:31:22;;;;;;;22.02;8.95;;;27.20;99.90;;;;;;5070186;28;20048;-64
2022/07/13 12:33:50;;;;;;;;;;;27.20;99.90;;;;;;5063630;28;20044;-65
2022/07/13 12:36:19;;;;;;;17.67;9.25;;;27.10;99.90;;;;;;5049707;28;19972;-63
2022/07/13 12:38:56;;;;;;;16.45;8.75;;;27.00;99.90;;;;;;5066265;28;20049;-65
2022/07/13 12:41:31;;;;;;;15.05;8.77;;;27.00;99.90;;;;;;5072667;28;20075;-66